Time;durP1;ratioP1;P1;durP2;ratioP2;P2;SDS_P1;SDS_P2;PMS_P1;PMS_P2;Temp;Humidity;BMP_temperature;BMP_pressure;BME280_temperature;BME280_humidity;BME280_pressure;Samples;Min_cycle;Max_cycle;Signal;HPM_P1;HPM_P2
2021/11/25 00:00:16;;;;;;;6.82;4.70;;;17.40;61.40;;;;;;5053291;28;20183;-62
2021/11/25 00:02:42;;;;;;;5.80;5.05;;;17.40;61.40;;;;;;5052202;28;20174;-61
2021/11/25 00:05:08;;;;;;;5.78;5.15;;;17.30;61.30;;;;;;5053122;28;20171;-60
2021/11/25 00:07:33;;;;;;;5.50;5.00;;;17.30;61.30;;;;;;5052712;28;20182;-62
2021/11/25 00:10:00;;;;;;;5.07;4.57;;;17.30;61.40;;;;;;5052130;28;20209;-61
2021/11/25 00:12:25;;;;;;;5.88;5.38;;;17.30;61.40;;;;;;5052868;28;20182;-63
2021/11/25 00:14:51;;;;;;;6.90;4.80;;;17.30;61.40;;;;;;5052368;28;20218;-61
2021/11/25 00:17:17;;;;;;;5.85;5.20;;;17.30;61.30;;;;;;5052190;28;20185;-61
2021/11/25 00:19:42;;;;;;;5.95;5.43;;;17.20;61.30;;;;;;5052528;28;20175;-61
2021/11/25 00:22:08;;;;;;;5.43;4.93;;;17.20;61.20;;;;;;5052641;28;20175;-62
2021/11/25 00:24:33;;;;;;;5.40;4.65;;;17.20;61.30;;;;;;5051611;28;20652;-60
2021/11/25 00:26:59;;;;;;;5.50;5.00;;;17.20;61.30;;;;;;5052498;28;20261;-62
2021/11/25 00:29:24;;;;;;;5.50;5.00;;;17.20;61.30;;;;;;5052615;28;20258;-61
2021/11/25 00:31:50;;;;;;;5.30;4.80;;;17.20;61.20;;;;;;5051817;28;20216;-60
2021/11/25 00:34:15;;;;;;;5.63;5.05;;;17.20;61.30;;;;;;5052401;28;20589;-61
2021/11/25 00:36:41;;;;;;;6.05;5.43;;;17.20;61.30;;;;;;5051551;28;20253;-61
2021/11/25 00:39:07;;;;;;;5.55;4.93;;;17.20;61.30;;;;;;5052375;28;20190;-61
2021/11/25 00:41:32;;;;;;;6.43;5.82;;;17.20;61.30;;;;;;5052077;28;20178;-61
2021/11/25 00:43:58;;;;;;;5.53;5.03;;;17.20;61.20;;;;;;5051705;28;20687;-61
2021/11/25 00:46:23;;;;;;;5.85;5.25;;;17.10;61.30;;;;;;5052213;28;20227;-61
2021/11/25 00:48:49;;;;;;;5.25;4.75;;;17.10;61.30;;;;;;5051867;28;20186;-61
2021/11/25 00:51:14;;;;;;;5.65;5.05;;;17.10;61.20;;;;;;5051375;28;20524;-62
2021/11/25 00:53:40;;;;;;;6.88;5.90;;;17.10;61.20;;;;;;5051684;28;20234;-62
2021/11/25 00:56:05;;;;;;;6.00;5.47;;;17.10;61.30;;;;;;5051902;28;20186;-62
2021/11/25 00:58:31;;;;;;;5.90;5.20;;;17.10;61.20;;;;;;5051223;28;20537;-61
2021/11/25 01:00:59;;;;;;;6.13;5.53;;;17.10;61.30;;;;;;5051862;28;20247;-61
2021/11/25 01:03:25;;;;;;;6.35;5.68;;;17.10;61.30;;;;;;5051832;28;20182;-60
2021/11/25 01:05:50;;;;;;;5.53;5.07;;;17.00;61.20;;;;;;5050978;28;20172;-60
2021/11/25 01:08:16;;;;;;;6.60;5.10;;;17.00;61.20;;;;;;5051985;28;20219;-61
2021/11/25 01:10:42;;;;;;;5.07;4.57;;;17.00;61.10;;;;;;5051549;28;20199;-62
2021/11/25 01:13:08;;;;;;;5.90;5.30;;;17.00;61.20;;;;;;5051243;28;20207;-63
2021/11/25 01:15:33;;;;;;;5.65;5.15;;;17.00;61.20;;;;;;5051528;28;20221;-62
2021/11/25 01:18:07;;;;;;;5.63;5.13;;;17.00;61.20;;;;;;5051921;28;20182;-62
2021/11/25 01:20:33;;;;;;;6.18;5.57;;;17.00;61.20;;;;;;5050941;28;20183;-61
2021/11/25 01:22:59;;;;;;;6.22;5.65;;;17.00;61.10;;;;;;5051453;28;20209;-61
2021/11/25 01:25:24;;;;;;;5.90;5.20;;;17.00;61.10;;;;;;5051981;28;20182;-61
2021/11/25 01:27:50;;;;;;;5.28;4.80;;;17.00;61.10;;;;;;5050471;28;20630;-61
2021/11/25 01:30:15;;;;;;;7.00;5.35;;;16.90;61.00;;;;;;5051824;28;20194;-61
2021/11/25 01:32:41;;;;;;;6.00;5.22;;;17.00;61.10;;;;;;5051545;28;20182;-61
2021/11/25 01:35:07;;;;;;;5.70;5.20;;;16.90;61.10;;;;;;5050874;28;20297;-60
2021/11/25 01:37:33;;;;;;;6.13;5.57;;;16.90;61.00;;;;;;5051306;28;20175;-61
2021/11/25 01:39:59;;;;;;;6.40;5.65;;;16.90;61.00;;;;;;5050774;28;20179;-60
2021/11/25 01:42:24;;;;;;;5.80;5.25;;;16.90;61.00;;;;;;5051816;28;20184;-61
2021/11/25 01:44:49;;;;;;;5.50;5.00;;;16.90;61.10;;;;;;5051135;28;20668;-61
2021/11/25 01:47:15;;;;;;;6.22;5.57;;;16.90;60.90;;;;;;5050581;28;20221;-60
2021/11/25 01:49:40;;;;;;;6.72;5.60;;;16.90;61.10;;;;;;5050653;28;20183;-60
2021/11/25 01:52:06;;;;;;;5.82;5.32;;;16.80;61.00;;;;;;5051444;28;20171;-61
2021/11/25 01:54:32;;;;;;;6.25;5.45;;;16.90;61.00;;;;;;5050358;28;20203;-62
2021/11/25 01:56:57;;;;;;;6.03;5.45;;;16.80;61.00;;;;;;5051624;28;20194;-61
2021/11/25 01:59:23;;;;;;;6.15;5.57;;;16.80;60.90;;;;;;5051291;28;20539;-61
2021/11/25 02:01:49;;;;;;;5.63;5.10;;;16.80;60.90;;;;;;5053914;28;20657;-61
2021/11/25 02:04:14;;;;;;;5.97;5.38;;;16.80;60.90;;;;;;5055302;28;20190;-62
2021/11/25 02:06:40;;;;;;;6.05;5.45;;;16.80;60.90;;;;;;5054958;28;20606;-60
2021/11/25 02:09:06;;;;;;;6.68;6.07;;;16.80;60.90;;;;;;5053053;28;20194;-61
2021/11/25 02:11:31;;;;;;;6.47;5.88;;;16.80;60.90;;;;;;5054817;28;20174;-63
2021/11/25 02:13:57;;;;;;;5.47;4.97;;;16.80;60.90;;;;;;5055159;28;20234;-63
2021/11/25 02:16:22;;;;;;;5.72;5.22;;;16.80;61.00;;;;;;5054119;28;20171;-63
2021/11/25 02:18:48;;;;;;;5.97;5.43;;;16.80;61.00;;;;;;5054656;28;20179;-61
2021/11/25 02:21:13;;;;;;;6.35;5.75;;;16.70;60.90;;;;;;5054915;28;20175;-61
2021/11/25 02:23:39;;;;;;;6.55;5.30;;;16.70;60.90;;;;;;5053844;28;20181;-61
2021/11/25 02:26:04;;;;;;;6.28;5.68;;;16.70;60.90;;;;;;5054930;28;20178;-61
2021/11/25 02:28:35;;;;;;;6.30;5.63;;;16.70;60.80;;;;;;5054571;28;20200;-62
2021/11/25 02:31:00;;;;;;;6.80;6.20;;;16.70;60.90;;;;;;5054126;28;20175;-60
2021/11/25 02:33:26;;;;;;;6.63;6.03;;;16.70;60.90;;;;;;5054683;28;20344;-61
2021/11/25 02:35:51;;;;;;;6.03;5.53;;;16.70;60.90;;;;;;5054387;28;20665;-61
2021/11/25 02:38:17;;;;;;;6.22;5.63;;;16.70;60.90;;;;;;5053871;28;20186;-61
2021/11/25 02:40:47;;;;;;;6.07;5.53;;;16.70;60.90;;;;;;5054647;28;20171;-61
2021/11/25 02:43:17;;;;;;;5.63;5.10;;;16.70;60.90;;;;;;5054007;28;20559;-61
2021/11/25 02:45:53;;;;;;;6.28;5.68;;;16.70;60.90;;;;;;5054032;28;20227;-61
2021/11/25 02:48:20;;;;;;;5.72;5.22;;;16.70;60.90;;;;;;5054566;28;20182;-61
2021/11/25 02:50:46;;;;;;;5.97;5.30;;;16.60;60.90;;;;;;5053434;28;20274;-61
2021/11/25 02:53:12;;;;;;;5.55;5.05;;;16.60;60.90;;;;;;5054511;28;20386;-60
2021/11/25 02:55:37;;;;;;;6.25;5.65;;;16.60;60.90;;;;;;5054201;28;20628;-62
2021/11/25 02:58:04;;;;;;;5.97;5.38;;;16.60;60.90;;;;;;5053691;28;20202;-61
2021/11/25 03:00:36;;;;;;;5.68;5.07;;;16.60;60.90;;;;;;5054199;28;20175;-62
2021/11/25 03:03:11;;;;;;;5.85;5.13;;;16.60;60.80;;;;;;5054133;28;20179;-61
2021/11/25 03:05:40;;;;;;;5.85;5.35;;;16.60;60.90;;;;;;5052972;28;20489;-60
2021/11/25 03:08:07;;;;;;;5.70;5.20;;;16.60;60.90;;;;;;5054128;28;20175;-60
2021/11/25 03:10:37;;;;;;;6.63;6.03;;;16.60;60.90;;;;;;5053810;28;20199;-62
2021/11/25 03:13:03;;;;;;;5.97;5.45;;;16.60;60.80;;;;;;5051939;28;20225;-61
2021/11/25 03:15:33;;;;;;;5.20;4.70;;;16.60;60.90;;;;;;5053661;28;20210;-62
2021/11/25 03:17:58;;;;;;;6.82;5.70;;;16.60;60.90;;;;;;5054001;28;20171;-61
2021/11/25 03:20:24;;;;;;;6.10;5.50;;;16.60;60.80;;;;;;5053224;28;20171;-61
2021/11/25 03:22:50;;;;;;;6.03;5.43;;;16.60;60.90;;;;;;5053362;28;20262;-61
2021/11/25 03:25:15;;;;;;;5.85;5.25;;;16.60;60.90;;;;;;5053581;28;20217;-61
2021/11/25 03:27:41;;;;;;;5.38;4.88;;;16.60;60.90;;;;;;5052791;28;20228;-60
2021/11/25 03:30:07;;;;;;;5.75;5.20;;;16.60;60.90;;;;;;5053634;28;20175;-60
2021/11/25 03:32:32;;;;;;;5.65;5.05;;;16.50;60.90;;;;;;5052498;28;20670;-60
2021/11/25 03:34:58;;;;;;;5.57;5.07;;;16.50;60.90;;;;;;5053644;28;20246;-60
2021/11/25 03:37:23;;;;;;;5.93;5.43;;;16.50;60.90;;;;;;5053710;28;20178;-60
2021/11/25 03:39:49;;;;;;;6.78;6.18;;;16.50;60.90;;;;;;5052504;28;20186;-61
2021/11/25 03:42:14;;;;;;;6.03;5.43;;;16.50;60.90;;;;;;5053515;28;20167;-61
2021/11/25 03:44:43;;;;;;;6.00;5.32;;;16.50;60.90;;;;;;5053103;28;20187;-61
2021/11/25 03:47:09;;;;;;;6.10;4.95;;;16.50;60.90;;;;;;5052527;28;20704;-61
2021/11/25 03:49:34;;;;;;;5.93;5.32;;;16.50;60.90;;;;;;5053216;28;20175;-61
2021/11/25 03:52:00;;;;;;;5.78;5.15;;;16.50;61.00;;;;;;5053219;28;20264;-61
2021/11/25 03:54:25;;;;;;;6.13;5.53;;;16.50;61.00;;;;;;5051195;28;20824;-63
2021/11/25 03:56:51;;;;;;;5.57;5.05;;;16.50;61.00;;;;;;5052918;28;20180;-62
2021/11/25 03:59:16;;;;;;;6.18;5.57;;;16.50;61.10;;;;;;5052938;28;20183;-61
2021/11/25 04:01:42;;;;;;;5.40;4.80;;;16.50;60.90;;;;;;5052259;28;20183;-61
2021/11/25 04:04:10;;;;;;;5.63;5.13;;;16.40;60.80;;;;;;5053239;28;20182;-61
2021/11/25 04:06:35;;;;;;;5.68;5.18;;;16.40;60.90;;;;;;5052795;28;20195;-61
2021/11/25 04:09:01;;;;;;;5.47;4.80;;;16.40;60.90;;;;;;5052404;28;20201;-61
2021/11/25 04:11:26;;;;;;;5.57;5.07;;;16.40;60.90;;;;;;5052988;28;20171;-61
2021/11/25 04:13:52;;;;;;;5.40;4.90;;;16.40;60.80;;;;;;5052402;28;20223;-61
2021/11/25 04:16:17;;;;;;;6.00;5.40;;;16.40;60.90;;;;;;5052274;28;20171;-62
2021/11/25 04:18:43;;;;;;;6.38;5.32;;;16.40;60.90;;;;;;5052551;28;20206;-62
2021/11/25 04:21:08;;;;;;;6.90;5.25;;;16.40;61.00;;;;;;5052688;28;20171;-61
2021/11/25 04:23:34;;;;;;;5.43;4.93;;;16.40;60.90;;;;;;5051496;28;20179;-61
2021/11/25 04:25:59;;;;;;;5.88;5.10;;;16.40;61.00;;;;;;5052562;28;20170;-61
2021/11/25 04:28:25;;;;;;;5.35;4.85;;;16.40;60.90;;;;;;5052482;28;20182;-61
2021/11/25 04:36:19;;;;;;;5.75;5.15;;;16.40;60.90;;;;;;5050836;28;20653;-61
2021/11/25 04:38:44;;;;;;;5.57;5.07;;;16.40;60.90;;;;;;5052157;28;20183;-60
2021/11/25 04:41:10;;;;;;;5.70;5.10;;;16.30;61.00;;;;;;5052347;28;20181;-60
2021/11/25 04:43:35;;;;;;;5.85;5.35;;;16.30;60.90;;;;;;5051407;28;20178;-60
2021/11/25 04:46:01;;;;;;;6.22;5.25;;;16.30;60.90;;;;;;5052148;28;20746;-60
2021/11/25 04:48:27;;;;;;;6.05;5.45;;;16.30;60.90;;;;;;5052291;28;20187;-61
2021/11/25 04:50:52;;;;;;;5.88;5.30;;;16.30;60.90;;;;;;5051327;28;20171;-61
2021/11/25 04:53:18;;;;;;;5.53;5.03;;;16.30;60.90;;;;;;5052019;28;20356;-62
2021/11/25 04:55:43;;;;;;;6.50;5.93;;;16.30;60.90;;;;;;5051628;28;20205;-62
2021/11/25 04:58:09;;;;;;;6.13;5.63;;;16.30;60.90;;;;;;5051315;28;20657;-62
2021/11/25 05:00:35;;;;;;;5.47;4.97;;;16.30;60.90;;;;;;5051544;28;20187;-62
2021/11/25 05:03:00;;;;;;;5.18;4.78;;;16.30;60.90;;;;;;5052089;28;20258;-61
2021/11/25 05:05:26;;;;;;;5.95;5.40;;;16.30;60.90;;;;;;5051180;28;20586;-61
2021/11/25 05:07:51;;;;;;;5.95;5.40;;;16.30;60.90;;;;;;5051494;28;20204;-61
2021/11/25 05:10:17;;;;;;;5.93;5.10;;;16.30;61.00;;;;;;5051799;28;20201;-63
2021/11/25 05:12:43;;;;;;;5.05;4.55;;;16.30;61.00;;;;;;5051067;28;20167;-62
2021/11/25 05:15:10;;;;;;;5.70;5.20;;;16.30;61.00;;;;;;5051801;28;20265;-62
2021/11/25 05:17:36;;;;;;;6.03;5.43;;;16.20;60.90;;;;;;5051552;28;20511;-62
2021/11/25 05:20:03;;;;;;;5.65;5.13;;;16.20;60.90;;;;;;5051001;28;20759;-63
2021/11/25 05:22:28;;;;;;;5.40;4.72;;;16.30;60.90;;;;;;5051399;28;20187;-64
2021/11/25 05:24:54;;;;;;;5.82;5.28;;;16.20;60.90;;;;;;5050807;28;20229;-62
2021/11/25 05:27:19;;;;;;;5.80;5.28;;;16.20;60.90;;;;;;5051627;28;20570;-62
2021/11/25 05:29:45;;;;;;;5.30;4.80;;;16.20;60.90;;;;;;5051375;28;20168;-61
2021/11/25 05:32:14;;;;;;;5.43;4.93;;;16.20;61.00;;;;;;5051143;28;20179;-60
2021/11/25 05:34:40;;;;;;;5.30;4.80;;;16.20;60.90;;;;;;5051614;28;20301;-60
2021/11/25 05:37:05;;;;;;;5.75;5.22;;;16.20;60.90;;;;;;5055827;28;20354;-61
2021/11/25 05:39:31;;;;;;;6.13;5.53;;;16.20;60.90;;;;;;5054653;28;20225;-61
2021/11/25 05:41:56;;;;;;;5.25;4.80;;;16.20;60.90;;;;;;5055888;28;20702;-61
2021/11/25 05:44:22;;;;;;;5.38;4.88;;;16.20;60.90;;;;;;5055789;28;20182;-62
2021/11/25 05:46:47;;;;;;;5.65;5.07;;;16.20;61.00;;;;;;5054450;28;20251;-62
2021/11/25 05:49:13;;;;;;;5.93;4.97;;;16.20;61.00;;;;;;5055571;28;20201;-61
2021/11/25 05:51:38;;;;;;;5.68;5.10;;;16.10;60.90;;;;;;5055273;28;20548;-62
2021/11/25 05:54:04;;;;;;;5.82;5.32;;;16.10;61.70;;;;;;5054650;28;20203;-61
2021/11/25 05:56:30;;;;;;;5.90;5.25;;;16.10;60.80;;;;;;5055403;28;20202;-63
2021/11/25 05:58:56;;;;;;;5.82;5.32;;;16.20;61.00;;;;;;5055553;28;20283;-60
2021/11/25 06:01:23;;;;;;;5.85;5.25;;;16.10;60.90;;;;;;5054570;28;20593;-61
2021/11/25 06:03:50;;;;;;;5.88;5.30;;;16.10;60.90;;;;;;5055073;28;20212;-59
2021/11/25 06:06:15;;;;;;;5.68;5.13;;;16.10;60.90;;;;;;5055141;28;20646;-59
2021/11/25 06:08:41;;;;;;;5.18;4.78;;;16.10;60.90;;;;;;5054403;28;20183;-62
2021/11/25 06:11:06;;;;;;;5.68;5.07;;;16.10;60.90;;;;;;5055364;28;20186;-62
2021/11/25 06:13:32;;;;;;;5.82;5.25;;;16.10;60.90;;;;;;5054962;28;20203;-63
2021/11/25 06:15:57;;;;;;;5.28;4.78;;;16.10;60.90;;;;;;5054569;28;20172;-62
2021/11/25 06:18:23;;;;;;;6.07;5.47;;;16.10;60.90;;;;;;5055034;28;20197;-63
2021/11/25 06:20:48;;;;;;;5.57;5.07;;;16.10;60.90;;;;;;5054889;28;20561;-61
2021/11/25 06:23:16;;;;;;;5.90;5.40;;;16.10;60.90;;;;;;5054252;28;20277;-62
2021/11/25 06:25:43;;;;;;;5.53;5.03;;;16.10;60.90;;;;;;5054840;28;20259;-62
2021/11/25 06:28:09;;;;;;;5.70;5.07;;;16.10;60.90;;;;;;5054636;28;20179;-61
2021/11/25 06:30:35;;;;;;;5.03;4.57;;;16.00;60.80;;;;;;5054391;28;20172;-61
2021/11/25 06:33:00;;;;;;;5.35;4.85;;;16.10;60.90;;;;;;5054752;28;20190;-60
2021/11/25 06:35:26;;;;;;;5.35;4.85;;;16.00;60.80;;;;;;5054041;28;20697;-60
2021/11/25 06:37:52;;;;;;;5.70;5.07;;;16.10;60.90;;;;;;5054370;28;20258;-61
2021/11/25 06:40:21;;;;;;;5.63;5.13;;;16.10;60.90;;;;;;5054879;28;20171;-62
2021/11/25 06:42:47;;;;;;;6.20;5.60;;;16.00;60.80;;;;;;5053953;28;20598;-61
2021/11/25 06:45:12;;;;;;;5.13;4.70;;;16.10;60.90;;;;;;5054457;28;20721;-61
2021/11/25 06:47:38;;;;;;;5.65;5.05;;;16.00;60.70;;;;;;5054222;28;20201;-61
2021/11/25 06:50:05;;;;;;;5.03;4.60;;;16.00;60.80;;;;;;5053869;28;20633;-61
2021/11/25 06:52:31;;;;;;;5.30;4.80;;;16.00;60.80;;;;;;5054399;28;20175;-62
2021/11/25 06:54:59;;;;;;;5.03;4.53;;;16.00;60.90;;;;;;5054354;28;20219;-62
2021/11/25 06:57:25;;;;;;;5.80;5.25;;;16.00;60.90;;;;;;5053847;28;20171;-61
2021/11/25 06:59:50;;;;;;;5.35;4.85;;;16.00;60.90;;;;;;5054116;28;20241;-60
2021/11/25 07:02:16;;;;;;;5.75;5.25;;;16.00;60.90;;;;;;5054340;28;20600;-60
2021/11/25 07:04:41;;;;;;;5.70;4.95;;;16.00;60.80;;;;;;5053336;28;20256;-59
2021/11/25 07:07:07;;;;;;;6.03;5.43;;;16.00;60.90;;;;;;5054419;28;20167;-60
2021/11/25 07:09:32;;;;;;;5.03;4.53;;;16.00;60.80;;;;;;5053923;28;20175;-62
2021/11/25 07:11:58;;;;;;;5.18;4.68;;;16.10;60.90;;;;;;5053713;28;20194;-62
2021/11/25 07:14:23;;;;;;;5.93;5.32;;;16.20;60.90;;;;;;5054118;28;20290;-63
2021/11/25 07:16:49;;;;;;;4.70;4.28;;;16.30;60.80;;;;;;5053757;28;20630;-61
2021/11/25 07:19:14;;;;;;;4.43;4.03;;;16.40;60.70;;;;;;5053342;28;20183;-61
2021/11/25 07:21:40;;;;;;;4.28;3.97;;;16.50;60.60;;;;;;5053842;28;20175;-61
2021/11/25 07:24:06;;;;;;;4.88;4.47;;;16.60;60.40;;;;;;5054050;28;20663;-60
2021/11/25 07:26:31;;;;;;;4.57;4.18;;;16.70;60.10;;;;;;5053032;28;20186;-62
2021/11/25 07:28:57;;;;;;;4.00;3.67;;;16.80;59.80;;;;;;5053875;28;20185;-60
2021/11/25 07:31:28;;;;;;;3.80;3.50;;;17.00;59.70;;;;;;5053736;28;20179;-60
2021/11/25 07:33:53;;;;;;;3.70;3.35;;;17.20;59.50;;;;;;5053416;28;20214;-61
2021/11/25 07:36:19;;;;;;;3.95;3.58;;;17.40;59.20;;;;;;5053955;28;20178;-60
2021/11/25 07:38:45;;;;;;;3.83;3.53;;;17.80;58.60;;;;;;5052787;28;20566;-60
2021/11/25 07:41:10;;;;;;;3.60;3.30;;;18.10;58.00;;;;;;5053639;28;20527;-59
2021/11/25 07:43:35;;;;;;;3.55;3.25;;;18.30;57.30;;;;;;5053081;28;20550;-61
2021/11/25 07:46:01;;;;;;;4.10;3.70;;;18.50;57.00;;;;;;5052551;28;20246;-60
2021/11/25 07:48:27;;;;;;;3.42;3.13;;;18.60;56.70;;;;;;5053290;28;20223;-62
2021/11/25 07:50:52;;;;;;;3.33;2.97;;;18.70;56.60;;;;;;5053085;28;20198;-66
2021/11/25 07:53:18;;;;;;;3.75;3.45;;;18.80;56.50;;;;;;5052733;28;20636;-66
2021/11/25 07:55:43;;;;;;;3.20;2.92;;;18.90;56.40;;;;;;5052940;28;20598;-66
2021/11/25 07:58:09;;;;;;;3.45;3.15;;;18.90;56.40;;;;;;5052532;28;20206;-66
2021/11/25 08:00:34;;;;;;;3.55;3.25;;;18.90;56.40;;;;;;5051999;28;20270;-66
2021/11/25 08:03:00;;;;;;;3.13;2.90;;;18.90;56.40;;;;;;5052969;28;20167;-66
2021/11/25 08:05:26;;;;;;;3.15;2.85;;;18.90;56.50;;;;;;5053238;28;20175;-67
2021/11/25 08:07:54;;;;;;;3.38;3.10;;;18.80;56.50;;;;;;5052271;28;20179;-66
2021/11/25 08:10:20;;;;;;;3.60;3.30;;;18.80;56.50;;;;;;5052942;28;20622;-66
2021/11/25 08:12:46;;;;;;;3.47;3.20;;;18.70;56.60;;;;;;5052641;28;20193;-66
2021/11/25 08:15:11;;;;;;;3.03;2.78;;;18.80;56.70;;;;;;5052037;28;20214;-66
2021/11/25 08:17:37;;;;;;;3.20;2.90;;;18.70;56.70;;;;;;5052485;28;20179;-66
2021/11/25 08:20:03;;;;;;;3.40;3.17;;;18.70;56.80;;;;;;5052658;28;20207;-66
2021/11/25 08:22:28;;;;;;;3.20;2.90;;;18.70;56.80;;;;;;5051634;28;20614;-65
2021/11/25 08:24:55;;;;;;;3.30;3.00;;;18.70;56.80;;;;;;5052567;28;20175;-65
2021/11/25 08:27:20;;;;;;;3.28;2.97;;;18.70;56.90;;;;;;5052471;28;20481;-66
2021/11/25 08:29:46;;;;;;;3.33;2.95;;;18.60;57.20;;;;;;5051998;28;20194;-66
2021/11/25 08:32:11;;;;;;;3.38;3.08;;;18.50;57.20;;;;;;5052451;28;20179;-66
2021/11/25 08:34:37;;;;;;;2.97;2.75;;;18.50;57.30;;;;;;5052250;28;20238;-67
2021/11/25 08:37:02;;;;;;;3.15;2.88;;;18.50;57.30;;;;;;5050676;28;20178;-66
2021/11/25 08:39:28;;;;;;;2.95;2.75;;;18.50;57.40;;;;;;5052385;28;20674;-65
2021/11/25 08:41:54;;;;;;;3.20;2.90;;;18.50;57.30;;;;;;5051937;28;20610;-66
2021/11/25 08:44:19;;;;;;;3.42;3.13;;;18.50;57.30;;;;;;5052429;28;20316;-66
2021/11/25 08:46:45;;;;;;;3.72;3.42;;;18.50;57.30;;;;;;5051775;28;20281;-65
2021/11/25 08:49:11;;;;;;;3.45;2.88;;;18.50;57.20;;;;;;5051557;28;20217;-66
2021/11/25 08:51:39;;;;;;;3.28;2.97;;;18.60;57.20;;;;;;5052188;28;20187;-65
2021/11/25 08:54:06;;;;;;;3.58;2.88;;;18.50;57.20;;;;;;5052265;28;20206;-66
2021/11/25 08:56:31;;;;;;;3.38;3.10;;;18.50;57.20;;;;;;5051118;28;20552;-66
2021/11/25 08:58:57;;;;;;;3.58;3.28;;;18.40;57.20;;;;;;5051766;28;20598;-67
2021/11/25 09:01:23;;;;;;;3.60;3.30;;;18.40;57.70;;;;;;5051793;28;20175;-63
2021/11/25 09:03:52;;;;;;;4.05;2.97;;;18.30;57.70;;;;;;5051072;28;20179;-65
2021/11/25 09:06:18;;;;;;;4.10;3.30;;;18.20;58.00;;;;;;5051777;28;20521;-65
2021/11/25 09:08:43;;;;;;;4.65;3.42;;;18.10;58.10;;;;;;5051675;28;20178;-64
2021/11/25 09:11:10;;;;;;;3.35;3.05;;;18.10;58.40;;;;;;5051111;28;20594;-64
2021/11/25 09:13:35;;;;;;;4.55;3.17;;;18.20;58.40;;;;;;5051564;28;20298;-61
2021/11/25 09:16:01;;;;;;;5.78;4.82;;;18.20;58.30;;;;;;5051789;28;20253;-62
2021/11/25 09:18:26;;;;;;;7.15;5.65;;;18.20;57.60;;;;;;5050954;28;20671;-63
2021/11/25 09:20:52;;;;;;;6.93;5.20;;;18.10;57.50;;;;;;5051349;28;20216;-63
2021/11/25 09:23:18;;;;;;;4.60;4.20;;;18.20;57.60;;;;;;5051784;28;20201;-62
2021/11/25 09:25:44;;;;;;;5.47;4.25;;;18.30;57.70;;;;;;5050743;28;20183;-63
2021/11/25 09:28:11;;;;;;;7.43;3.90;;;18.30;57.70;;;;;;5051650;28;20532;-63
2021/11/25 09:30:37;;;;;;;5.25;3.65;;;18.30;57.60;;;;;;5051094;28;20590;-64
2021/11/25 09:33:03;;;;;;;5.00;3.35;;;18.30;57.60;;;;;;5051060;28;20332;-63
2021/11/25 09:35:28;;;;;;;4.32;3.40;;;18.30;57.80;;;;;;5051588;28;20218;-63
2021/11/25 09:37:54;;;;;;;4.50;3.40;;;18.20;58.00;;;;;;5051455;28;20602;-64
2021/11/25 09:40:23;;;;;;;4.05;3.40;;;18.20;58.10;;;;;;5050849;28;20174;-64
2021/11/25 09:42:58;;;;;;;3.65;3.10;;;18.10;58.20;;;;;;5051148;28;20175;-64
2021/11/25 09:45:23;;;;;;;4.03;3.00;;;18.10;58.30;;;;;;5050416;28;20230;-63
2021/11/25 09:48:00;;;;;;;5.55;2.95;;;18.10;58.40;;;;;;5051235;28;20179;-63
2021/11/25 09:50:27;;;;;;;3.50;3.17;;;18.20;58.40;;;;;;5051362;28;20500;-64
2021/11/25 09:52:54;;;;;;;4.10;3.10;;;18.20;58.40;;;;;;5050485;28;20172;-64
2021/11/25 09:55:19;;;;;;;3.08;2.78;;;18.30;58.30;;;;;;5051297;28;20296;-66
2021/11/25 09:57:45;;;;;;;3.13;2.53;;;18.30;58.20;;;;;;5050964;28;20199;-66
2021/11/25 10:00:11;;;;;;;3.92;2.83;;;18.30;58.20;;;;;;5050733;28;20171;-66
2021/11/25 10:02:36;;;;;;;2.65;2.45;;;18.20;58.30;;;;;;5051230;28;20175;-63
2021/11/25 10:05:03;;;;;;;4.00;2.97;;;18.20;58.40;;;;;;5051181;28;20520;-63
2021/11/25 10:07:38;;;;;;;3.05;2.75;;;18.10;58.60;;;;;;5050530;28;20588;-66
2021/11/25 10:10:24;;;;;;;5.68;2.75;;;18.10;58.80;;;;;;5051200;28;20181;-67
2021/11/25 10:12:50;;;;;;;3.25;2.95;;;18.00;58.70;;;;;;5051149;28;20171;-66
2021/11/25 10:15:29;;;;;;;3.53;3.08;;;18.00;58.70;;;;;;5050652;28;20687;-66
2021/11/25 10:17:56;;;;;;;3.70;3.28;;;18.00;58.50;;;;;;5051196;28;20175;-66
2021/11/25 10:20:21;;;;;;;3.95;3.60;;;18.00;58.40;;;;;;5050483;28;20190;-65
2021/11/25 10:23:05;;;;;;;4.68;3.75;;;18.10;58.10;;;;;;5054391;28;20529;-66
2021/11/25 10:25:52;;;;;;;4.22;3.40;;;18.10;58.10;;;;;;5054755;28;20170;-66
2021/11/25 10:28:34;;;;;;;5.38;3.85;;;18.00;57.90;;;;;;5053797;28;20630;-66
2021/11/25 10:31:20;;;;;;;4.70;4.30;;;18.00;58.10;;;;;;5054737;28;20269;-67
2021/11/25 10:42:00;;;;;;;5.30;3.83;;;17.80;58.00;;;;;;5058898;28;20321;-67
2021/11/25 10:44:33;;;;;;;5.55;4.28;;;17.90;58.00;;;;;;5065951;28;20178;-67
2021/11/25 10:47:12;;;;;;;4.63;4.20;;;17.90;57.90;;;;;;5074250;28;20279;-67
2021/11/25 10:49:48;;;;;;;4.88;4.38;;;18.00;57.80;;;;;;5054130;28;20186;-67
2021/11/25 10:52:29;;;;;;;4.57;4.18;;;18.00;57.70;;;;;;5053776;28;20183;-66
2021/11/25 10:55:00;;;;;;;4.55;4.10;;;18.00;57.70;;;;;;5054172;28;20669;-65
2021/11/25 10:57:54;;;;;;;4.57;4.18;;;17.90;57.80;;;;;;5066572;28;20183;-65
2021/11/25 11:00:34;;;;;;;4.97;4.30;;;17.90;57.80;;;;;;5074234;28;20262;-67
2021/11/25 11:03:22;;;;;;;4.38;3.97;;;17.80;57.80;;;;;;5073622;28;20197;-66
2021/11/25 11:05:51;;;;;;;5.15;4.65;;;17.80;58.00;;;;;;5074012;28;20174;-64
2021/11/25 11:08:17;;;;;;;6.80;4.05;;;17.90;58.10;;;;;;5074033;28;20174;-63
2021/11/25 11:11:02;;;;;;;6.57;4.35;;;17.90;58.00;;;;;;5072909;28;20185;-62
2021/11/25 11:21:48;;;;;;;3.72;3.42;;;18.10;57.80;;;;;;5053569;28;20614;-62
2021/11/25 11:24:20;;;;;;;5.68;3.75;;;18.10;58.00;;;;;;5052493;28;20629;-62
2021/11/25 11:26:49;;;;;;;4.72;3.35;;;18.00;58.10;;;;;;5053486;28;20179;-63
2021/11/25 11:29:19;;;;;;;4.40;3.55;;;18.00;58.10;;;;;;5053549;28;20290;-66
2021/11/25 11:31:46;;;;;;;5.65;3.20;;;17.90;58.20;;;;;;5052772;28;20183;-64
2021/11/25 11:34:12;;;;;;;4.72;4.25;;;18.00;58.40;;;;;;5052756;28;20219;-62
2021/11/25 11:36:40;;;;;;;4.03;3.58;;;18.00;58.30;;;;;;5053277;28;20186;-66
2021/11/25 11:39:06;;;;;;;7.07;3.97;;;18.00;58.40;;;;;;5052803;28;20506;-67
2021/11/25 11:41:32;;;;;;;5.57;3.63;;;18.00;58.50;;;;;;5053373;28;20592;-66
2021/11/25 11:43:58;;;;;;;4.85;3.80;;;18.00;58.40;;;;;;5052915;28;20673;-66
2021/11/25 11:46:24;;;;;;;6.07;4.00;;;18.00;58.20;;;;;;5052775;28;20227;-66
2021/11/25 11:48:51;;;;;;;8.57;3.80;;;18.10;58.30;;;;;;5067676;28;20166;-66
2021/11/25 11:51:17;;;;;;;4.28;3.47;;;18.20;58.10;;;;;;5072256;28;20243;-66
2021/11/25 11:53:46;;;;;;;4.97;3.58;;;18.20;58.10;;;;;;5072251;28;20586;-66
2021/11/25 11:56:13;;;;;;;5.90;3.33;;;18.20;58.10;;;;;;5073176;28;20663;-66
2021/11/25 11:58:59;;;;;;;4.05;3.25;;;18.30;58.20;;;;;;5072778;28;20257;-67
2021/11/25 12:01:27;;;;;;;3.67;3.28;;;18.40;58.20;;;;;;5073369;28;20245;-65
2021/11/25 12:03:55;;;;;;;5.53;3.30;;;18.50;58.00;;;;;;5072541;28;20492;-71
2021/11/25 12:06:34;;;;;;;3.88;3.47;;;18.70;57.70;;;;;;5072365;28;20175;-65
2021/11/25 12:09:14;;;;;;;4.68;3.72;;;18.90;57.40;;;;;;5072654;28;20541;-66
2021/11/25 12:11:45;;;;;;;6.43;3.88;;;19.00;57.10;;;;;;5072794;28;20240;-67
2021/11/25 12:14:14;;;;;;;4.15;3.47;;;19.10;56.90;;;;;;5072230;28;20198;-66
2021/11/25 12:16:44;;;;;;;5.93;3.85;;;19.20;56.60;;;;;;5072476;28;20178;-65
2021/11/25 12:19:14;;;;;;;6.20;3.70;;;19.30;56.40;;;;;;5072741;28;20265;-65
2021/11/25 12:21:47;;;;;;;6.22;3.67;;;19.40;56.20;;;;;;5070328;28;20205;-64
2021/11/25 12:24:23;;;;;;;5.38;3.97;;;19.40;56.00;;;;;;5072737;28;20194;-64
2021/11/25 12:27:28;;;;;;;5.72;3.63;;;19.50;56.00;;;;;;5072419;28;20186;-64
2021/11/25 12:30:09;;;;;;;5.80;3.70;;;19.50;55.90;;;;;;5050474;28;20248;-64
2021/11/25 12:35:20;;;;;;;4.28;3.28;;;19.50;56.20;;;;;;5051026;28;20230;-64
2021/11/25 12:38:08;;;;;;;5.45;3.25;;;19.50;56.20;;;;;;5052000;28;20162;-65
2021/11/25 12:40:31;;;;;;;4.82;3.13;;;19.40;56.30;;;;;;5051071;28;20179;-65
2021/11/25 12:43:02;;;;;;;5.40;3.83;;;19.30;56.70;;;;;;5051519;28;20209;-65
2021/11/25 12:45:29;;;;;;;5.57;3.38;;;19.20;56.80;;;;;;5051274;28;20654;-64
2021/11/25 12:48:04;;;;;;;4.93;3.00;;;19.10;57.10;;;;;;5052527;28;20248;-65
2021/11/25 12:50:30;;;;;;;5.82;3.08;;;19.10;57.30;;;;;;5052113;28;20179;-65
2021/11/25 12:52:55;;;;;;;8.07;3.85;;;19.00;57.30;;;;;;5052251;28;20579;-64
2021/11/25 12:55:21;;;;;;;6.03;3.33;;;19.00;57.60;;;;;;5051622;28;20252;-64
2021/11/25 12:57:50;;;;;;;5.28;3.20;;;18.90;57.60;;;;;;5052255;28;20249;-64
2021/11/25 13:00:20;;;;;;;5.10;3.25;;;18.90;57.70;;;;;;5052492;28;20255;-65
2021/11/25 13:02:58;;;;;;;3.53;3.22;;;18.90;57.80;;;;;;5051507;28;20199;-64
2021/11/25 13:05:24;;;;;;;4.40;3.40;;;18.80;58.00;;;;;;5052661;28;20250;-65
2021/11/25 13:07:50;;;;;;;4.30;3.65;;;18.70;58.10;;;;;;5051783;28;20658;-64
2021/11/25 13:10:37;;;;;;;5.50;3.60;;;18.70;58.20;;;;;;5051392;28;20186;-64
2021/11/25 13:13:07;;;;;;;5.57;3.80;;;18.70;58.20;;;;;;5052007;28;20175;-65